Ballantine, Montana
Current Conditions -  °F | °C
As of 1:53 PM on Wednesday 26 Nov 2014 (Local Time) from KBIL Reporting Station
Light Snow Light Snow  
Wind Chill: -6°   Ceiling: 500
Heat Index: -2°   Visibility: 0.75mi
Dew Point: -2°   Wind: 7mph
Humidity: 96%   Direction: 110°ESE
Pressure: 30.18"   Gusts: NA
Location:  45.95°N, 108.15°W
Report Text: KBIL 262053Z 11006KT 3/4SM R10L/4500VP6000FT -SN BR BKN005 OVC017 M02/M02 A3018 RMK AO2 SLP255 P0003 60010 T10171022 56004
Loading
Personal Weather Stations






























Interactive Weather Map New forecast layout! Learn more

10-Day Weather Forecast

Advertisements
Track Severe Weather on mobile